Time;durP1;ratioP1;P1;durP2;ratioP2;P2;SDS_P1;SDS_P2;PMS_P1;PMS_P2;Temp;Humidity;BMP_temperature;BMP_pressure;BME280_temperature;BME280_humidity;BME280_pressure;Samples;Min_cycle;Max_cycle;Signal;HPM_P1;HPM_P2
2022/06/05 00:01:33;;;;;;;0.30;0.30;;;11.00;99.90;;;;;;5059019;28;20048;-85
2022/06/05 00:04:17;;;;;;;0.20;0.10;;;10.90;99.90;;;;;;5091761;28;20405;-80
2022/06/05 00:07:04;;;;;;;0.15;0.15;;;10.90;99.90;;;;;;5091617;28;20043;-81
2022/06/05 00:09:45;;;;;;;0.10;0.10;;;10.90;99.90;;;;;;5077633;28;20048;-85
2022/06/05 00:12:15;;;;;;;0.10;0.10;;;10.90;99.90;;;;;;5075122;28;20143;-81
2022/06/05 00:14:42;;;;;;;0.20;0.20;;;10.90;99.90;;;;;;5074648;28;20123;-81
2022/06/05 00:17:15;;;;;;;0.50;0.30;;;10.90;99.90;;;;;;5091829;28;20040;-81
2022/06/05 00:19:45;;;;;;;0.10;0.10;;;10.90;99.90;;;;;;5074633;28;20036;-81
2022/06/05 00:22:13;;;;;;;0.13;0.13;;;11.00;99.90;;;;;;5076006;28;20044;-81
2022/06/05 00:24:40;;;;;;;0.30;0.30;;;10.90;99.90;;;;;;5091249;28;20512;-81
2022/06/05 00:27:10;;;;;;;0.20;0.20;;;11.00;99.90;;;;;;5074962;28;20119;-85
2022/06/05 00:29:55;;;;;;;0.10;0.10;;;10.90;99.90;;;;;;5103987;28;20118;-85
2022/06/05 00:32:27;;;;;;;0.20;0.20;;;10.90;99.90;;;;;;5091194;28;20062;-83
2022/06/05 00:34:54;;;;;;;0.03;0.03;;;11.00;99.90;;;;;;5091676;28;20105;-85
2022/06/05 00:37:27;;;;;;;0.10;0.10;;;11.00;99.90;;;;;;5058313;28;20048;-85
2022/06/05 00:39:59;;;;;;;0.20;0.20;;;11.00;99.90;;;;;;5091488;28;20452;-85
2022/06/05 00:42:30;;;;;;;0.10;0.10;;;10.90;99.90;;;;;;5074303;28;20509;-81
2022/06/05 00:45:00;;;;;;;0.43;0.20;;;11.00;99.90;;;;;;5074269;28;20036;-80
2022/06/05 00:47:31;;;;;;;0.10;0.10;;;11.00;99.90;;;;;;5090151;28;20060;-85
2022/06/05 00:50:04;;;;;;;0.20;0.20;;;10.90;99.90;;;;;;5090988;28;20404;-81
2022/06/05 00:52:33;;;;;;;0.40;0.30;;;10.90;99.90;;;;;;5091059;28;20043;-85
2022/06/05 00:54:59;;;;;;;0.35;0.30;;;10.90;99.90;;;;;;5074172;28;20051;-81
2022/06/05 00:57:30;;;;;;;0.10;0.10;;;10.90;99.90;;;;;;5068454;28;20048;-81
2022/06/05 00:59:59;;;;;;;0.17;0.10;;;10.90;99.90;;;;;;5071167;28;20037;-80
2022/06/05 01:02:28;;;;;;;0.10;0.10;;;10.90;99.90;;;;;;5054280;28;20835;-81
2022/06/05 01:04:55;;;;;;;0.10;0.10;;;10.90;99.90;;;;;;5054283;28;20045;-80
2022/06/05 01:07:22;;;;;;;0.25;0.20;;;10.90;99.90;;;;;;5054285;28;20422;-84
2022/06/05 01:09:51;;;;;;;0.15;0.15;;;10.90;99.90;;;;;;5090386;28;20097;-85
2022/06/05 01:12:20;;;;;;;0.13;0.13;;;10.90;99.90;;;;;;5053991;28;20047;-81
2022/06/05 01:14:59;;;;;;;0.10;0.10;;;10.90;99.90;;;;;;5053758;28;20049;-80
2022/06/05 01:18:01;;;;;;;0.10;0.10;;;10.90;99.90;;;;;;5077851;28;20113;-81
2022/06/05 01:20:47;;;;;;;0.13;0.13;;;10.90;99.90;;;;;;5090004;28;20040;-85
2022/06/05 01:23:16;;;;;;;0.40;0.40;;;10.90;99.90;;;;;;5090832;28;20870;-85
2022/06/05 01:25:54;;;;;;;0.20;0.20;;;10.90;99.90;;;;;;5089888;28;20182;-85
2022/06/05 01:28:25;;;;;;;0.00;0.00;;;10.90;99.90;;;;;;5081182;28;20454;-80
2022/06/05 01:30:57;;;;;;;0.10;0.10;;;10.90;99.90;;;;;;5073538;28;20040;-84
2022/06/05 01:33:26;;;;;;;0.20;0.20;;;10.90;99.90;;;;;;5053850;28;20037;-81
2022/06/05 01:36:03;;;;;;;0.40;0.30;;;10.90;99.90;;;;;;5069854;28;20078;-85
2022/06/05 01:38:32;;;;;;;0.10;0.10;;;10.90;99.90;;;;;;5101766;28;20519;-85
2022/06/05 01:41:06;;;;;;;0.55;0.25;;;10.90;99.90;;;;;;5089983;28;20185;-85
2022/06/05 01:43:37;;;;;;;0.82;0.30;;;10.90;99.90;;;;;;5106479;28;20040;-81
2022/06/05 01:46:10;;;;;;;0.30;0.25;;;10.90;99.90;;;;;;5089748;28;20386;-81
2022/06/05 01:49:01;;;;;;;0.20;0.20;;;10.90;99.90;;;;;;5077379;28;20048;-85
2022/06/05 01:51:40;;;;;;;0.10;0.10;;;10.90;99.90;;;;;;5053322;28;20040;-81
2022/06/05 01:54:14;;;;;;;0.10;0.10;;;11.00;99.90;;;;;;5053452;28;20052;-85
2022/06/05 01:56:46;;;;;;;0.10;0.10;;;11.00;99.90;;;;;;5069619;28;20041;-85
2022/06/05 01:59:39;;;;;;;0.10;0.10;;;11.00;99.90;;;;;;5071561;28;20421;-81
2022/06/05 02:02:11;;;;;;;0.10;0.10;;;11.00;99.90;;;;;;5089944;28;20050;-85
2022/06/05 02:04:46;;;;;;;0.43;0.40;;;11.00;99.90;;;;;;5073079;28;20068;-85
2022/06/05 02:07:33;;;;;;;0.10;0.10;;;11.00;99.90;;;;;;5073328;28;20040;-85
2022/06/05 02:10:16;;;;;;;0.20;0.20;;;10.90;99.90;;;;;;5085731;28;20119;-80
2022/06/05 02:12:42;;;;;;;0.10;0.10;;;11.00;99.90;;;;;;5089684;28;20040;-81
2022/06/05 02:15:10;;;;;;;0.17;0.17;;;10.90;99.90;;;;;;5073503;28;20052;-80
2022/06/05 02:17:38;;;;;;;0.10;0.10;;;10.90;99.90;;;;;;5073107;28;20048;-81
2022/06/05 02:20:07;;;;;;;0.20;0.20;;;10.90;99.90;;;;;;5061095;28;20040;-85
2022/06/05 02:22:41;;;;;;;0.32;0.30;;;10.90;99.90;;;;;;5106726;28;20047;-85
2022/06/05 02:25:09;;;;;;;0.52;0.20;;;10.90;99.90;;;;;;5073399;28;20036;-85
2022/06/05 02:27:36;;;;;;;0.10;0.10;;;10.90;99.90;;;;;;5056740;28;20076;-81
2022/06/05 02:30:05;;;;;;;0.63;0.30;;;10.90;99.90;;;;;;5056473;28;20413;-85
2022/06/05 02:32:44;;;;;;;0.15;0.15;;;10.90;99.90;;;;;;5090868;28;20040;-80
2022/06/05 02:35:41;;;;;;;0.10;0.10;;;10.90;99.90;;;;;;5093839;28;20047;-81
2022/06/05 02:38:51;;;;;;;0.10;0.10;;;10.90;99.90;;;;;;5077335;28;20040;-81
2022/06/05 02:41:32;;;;;;;0.40;0.35;;;10.90;99.90;;;;;;5076350;28;20475;-81
2022/06/05 02:44:29;;;;;;;0.15;0.10;;;10.80;99.90;;;;;;5076619;28;20082;-81
2022/06/05 02:47:16;;;;;;;0.10;0.10;;;10.90;99.90;;;;;;5092499;28;20048;-81
2022/06/05 02:49:49;;;;;;;0.20;0.20;;;10.90;99.90;;;;;;5076396;28;20178;-84
2022/06/05 02:52:17;;;;;;;0.20;0.20;;;10.90;99.90;;;;;;5073494;28;20045;-85
2022/06/05 02:54:50;;;;;;;0.10;0.10;;;10.90;99.90;;;;;;5040366;28;20072;-81
2022/06/05 02:57:17;;;;;;;0.10;0.10;;;10.90;99.90;;;;;;5072319;28;20048;-81
2022/06/05 02:59:44;;;;;;;0.20;0.20;;;10.90;99.90;;;;;;5040397;28;20029;-85
2022/06/05 03:04:56;;;;;;;0.10;0.10;;;10.90;99.90;;;;;;5078636;28;20055;-85
2022/06/05 03:07:23;;;;;;;0.20;0.20;;;10.90;99.90;;;;;;5059946;28;20489;-80
2022/06/05 03:09:49;;;;;;;0.10;0.10;;;11.00;99.90;;;;;;5059435;28;20036;-80
2022/06/05 03:12:16;;;;;;;0.20;0.20;;;11.00;99.90;;;;;;5093197;28;20048;-85
2022/06/05 03:14:43;;;;;;;0.13;0.13;;;11.00;99.90;;;;;;5092852;28;20415;-81
2022/06/05 03:17:09;;;;;;;0.10;0.10;;;11.00;99.90;;;;;;5060177;28;20047;-85
2022/06/05 03:19:36;;;;;;;0.25;0.20;;;11.00;99.90;;;;;;5092752;28;20428;-85
2022/06/05 03:22:03;;;;;;;0.08;0.08;;;11.00;99.90;;;;;;5081260;28;20033;-81
2022/06/05 03:24:30;;;;;;;0.15;0.15;;;11.10;99.90;;;;;;5076135;28;20095;-81
2022/06/05 03:26:56;;;;;;;0.10;0.10;;;11.00;99.90;;;;;;5059543;28;20040;-81
2022/06/05 03:29:23;;;;;;;0.10;0.10;;;11.10;99.90;;;;;;5092662;28;20532;-85
2022/06/05 03:31:50;;;;;;;0.15;0.15;;;11.10;99.90;;;;;;5082224;28;20041;-81
2022/06/05 03:34:17;;;;;;;0.20;0.20;;;11.20;99.90;;;;;;5076194;28;20447;-86
2022/06/05 03:36:46;;;;;;;0.20;0.20;;;11.20;99.90;;;;;;5059439;28;20505;-86
2022/06/05 03:39:12;;;;;;;0.30;0.30;;;11.20;99.90;;;;;;5076070;28;20040;-86
2022/06/05 03:41:39;;;;;;;0.20;0.20;;;11.20;99.90;;;;;;5059695;28;20037;-81
2022/06/05 03:44:06;;;;;;;0.10;0.10;;;11.20;99.90;;;;;;5075674;28;20516;-81
2022/06/05 03:46:39;;;;;;;0.10;0.10;;;11.30;99.90;;;;;;5059214;28;20418;-85
2022/06/05 03:49:07;;;;;;;0.10;0.10;;;11.30;99.90;;;;;;5076001;28;20036;-86
2022/06/05 03:51:34;;;;;;;0.10;0.10;;;11.30;99.90;;;;;;5060473;28;20028;-85
2022/06/05 03:54:01;;;;;;;0.30;0.30;;;11.40;99.90;;;;;;5092108;28;20443;-85
2022/06/05 03:56:29;;;;;;;0.45;0.28;;;11.40;99.90;;;;;;5108688;28;20134;-86
2022/06/05 03:58:58;;;;;;;0.47;0.20;;;11.40;99.90;;;;;;5091467;28;20043;-81
2022/06/05 04:01:26;;;;;;;0.88;0.35;;;11.40;99.90;;;;;;5091950;28;20141;-81
2022/06/05 04:03:54;;;;;;;0.03;0.03;;;11.40;99.90;;;;;;5059159;28;20048;-81
2022/06/05 04:06:27;;;;;;;0.55;0.38;;;11.40;99.90;;;;;;5075415;28;20028;-81
2022/06/05 04:08:59;;;;;;;0.10;0.10;;;11.40;99.90;;;;;;5091335;28;20575;-81
2022/06/05 04:11:28;;;;;;;0.10;0.10;;;11.40;99.90;;;;;;5059434;28;20044;-81
2022/06/05 04:13:55;;;;;;;0.17;0.17;;;11.40;99.90;;;;;;5075351;28;20044;-85
2022/06/05 04:16:28;;;;;;;0.10;0.10;;;11.40;99.90;;;;;;5058792;28;20041;-81
2022/06/05 04:18:57;;;;;;;0.10;0.10;;;11.50;99.90;;;;;;5085794;28;20040;-81
2022/06/05 04:21:27;;;;;;;0.28;0.28;;;11.50;99.90;;;;;;5086564;28;20033;-81
2022/06/05 04:23:55;;;;;;;0.05;0.05;;;11.50;99.90;;;;;;5082856;28;20070;-85
2022/06/05 04:26:25;;;;;;;0.22;0.20;;;11.60;99.90;;;;;;5074956;28;20410;-81
2022/06/05 04:28:54;;;;;;;0.20;0.20;;;11.60;99.90;;;;;;5074884;28;20063;-81
2022/06/05 04:31:28;;;;;;;0.20;0.10;;;11.60;99.90;;;;;;5074899;28;20433;-81
2022/06/05 04:33:58;;;;;;;0.10;0.10;;;11.70;99.90;;;;;;5091180;28;20485;-81
2022/06/05 04:36:26;;;;;;;0.20;0.15;;;11.70;99.90;;;;;;5074500;28;20040;-85
2022/06/05 04:38:53;;;;;;;0.75;0.45;;;11.80;99.90;;;;;;5058498;28;20124;-86
2022/06/05 04:41:20;;;;;;;0.20;0.20;;;11.90;99.90;;;;;;5074715;28;20076;-81
2022/06/05 04:43:48;;;;;;;0.10;0.10;;;11.90;99.90;;;;;;5074349;28;20105;-86
2022/06/05 04:46:17;;;;;;;0.20;0.20;;;11.90;99.90;;;;;;5058140;28;20052;-86
2022/06/05 04:48:44;;;;;;;0.15;0.15;;;12.00;99.90;;;;;;5057860;28;20044;-81
2022/06/05 04:51:15;;;;;;;0.10;0.10;;;12.00;99.90;;;;;;5057411;28;20032;-85
2022/06/05 04:53:42;;;;;;;0.43;0.30;;;12.10;99.90;;;;;;5092002;28;20455;-85
2022/06/05 04:56:12;;;;;;;0.35;0.28;;;12.10;99.90;;;;;;5073720;28;20040;-81
2022/06/05 04:58:39;;;;;;;0.10;0.10;;;12.20;99.90;;;;;;5074206;28;20114;-81
2022/06/05 05:01:26;;;;;;;0.15;0.15;;;12.30;99.90;;;;;;5089114;28;20074;-85
2022/06/05 05:03:56;;;;;;;0.10;0.10;;;12.30;99.90;;;;;;5090650;28;20108;-81
2022/06/05 05:06:24;;;;;;;0.25;0.20;;;12.40;99.90;;;;;;5090989;28;20033;-85
2022/06/05 05:08:51;;;;;;;0.52;0.47;;;12.50;99.90;;;;;;5057486;28;20032;-85
2022/06/05 05:11:21;;;;;;;0.40;0.40;;;12.50;99.90;;;;;;5108554;28;20037;-81
2022/06/05 05:13:49;;;;;;;0.25;0.22;;;12.60;99.90;;;;;;5057400;28;20485;-85
2022/06/05 05:16:16;;;;;;;0.10;0.10;;;12.60;99.90;;;;;;5073645;28;20036;-81
2022/06/05 05:18:42;;;;;;;0.30;0.30;;;12.60;99.90;;;;;;5090670;28;20024;-86
2022/06/05 05:21:13;;;;;;;0.43;0.20;;;12.70;99.90;;;;;;5057270;28;20032;-80
2022/06/05 05:23:41;;;;;;;0.57;0.50;;;12.70;99.90;;;;;;5091077;28;20086;-85
2022/06/05 05:26:21;;;;;;;0.13;0.10;;;12.80;99.90;;;;;;5090300;28;20485;-81
2022/06/05 05:28:48;;;;;;;0.38;0.30;;;12.90;99.90;;;;;;5107554;28;20036;-81
2022/06/05 05:31:19;;;;;;;0.10;0.10;;;13.00;99.90;;;;;;5106321;28;20037;-80
2022/06/05 05:33:49;;;;;;;0.20;0.20;;;13.00;99.90;;;;;;5090222;28;20041;-80
2022/06/05 05:36:20;;;;;;;0.45;0.20;;;13.10;99.90;;;;;;5089897;28;20040;-87
2022/06/05 05:44:20;;;;;;;0.20;0.20;;;13.60;99.90;;;;;;5070837;28;20041;-86
2022/06/05 05:46:47;;;;;;;0.38;0.22;;;13.70;99.90;;;;;;5061301;28;20511;-83
2022/06/05 05:49:15;;;;;;;0.90;0.20;;;13.80;99.90;;;;;;5049163;28;20041;-82
2022/06/05 05:51:42;;;;;;;0.15;0.15;;;13.90;99.90;;;;;;5053759;28;20033;-87
2022/06/05 05:54:10;;;;;;;0.57;0.30;;;14.00;99.90;;;;;;5070285;28;20052;-87
2022/06/05 05:56:38;;;;;;;1.42;0.43;;;14.20;99.90;;;;;;5070546;28;20088;-82
2022/06/05 05:59:06;;;;;;;0.40;0.20;;;14.30;99.90;;;;;;5070189;28;20040;-82
2022/06/05 06:01:33;;;;;;;0.20;0.20;;;14.30;99.90;;;;;;5069632;28;20076;-82
2022/06/05 06:04:00;;;;;;;0.30;0.25;;;14.40;99.90;;;;;;5086608;28;20097;-86
2022/06/05 06:06:30;;;;;;;0.30;0.30;;;14.50;99.90;;;;;;5053038;28;20041;-83
2022/06/05 06:08:57;;;;;;;0.90;0.50;;;14.60;99.90;;;;;;5059208;28;20082;-86
2022/06/05 06:11:24;;;;;;;0.95;0.40;;;14.70;99.90;;;;;;5058613;28;20101;-86
2022/06/05 06:13:51;;;;;;;0.20;0.20;;;14.70;99.90;;;;;;5063977;28;20093;-82
2022/06/05 06:16:17;;;;;;;0.30;0.20;;;14.80;99.90;;;;;;5042954;28;20126;-86
2022/06/05 06:18:44;;;;;;;1.00;0.50;;;14.80;99.90;;;;;;5041294;28;20040;-85
2022/06/05 06:21:11;;;;;;;0.20;0.20;;;14.80;99.90;;;;;;5053410;28;20029;-82
2022/06/05 06:23:37;;;;;;;0.30;0.30;;;14.90;99.90;;;;;;5069518;28;20486;-86
2022/06/05 06:26:06;;;;;;;0.45;0.30;;;15.00;99.90;;;;;;5052770;28;20041;-82
2022/06/05 06:28:33;;;;;;;0.30;0.30;;;15.10;99.90;;;;;;5063832;28;20033;-86
2022/06/05 06:31:07;;;;;;;0.43;0.28;;;15.10;99.90;;;;;;5044592;28;20560;-83
2022/06/05 06:33:33;;;;;;;0.82;0.40;;;15.20;99.90;;;;;;5065802;28;20033;-83
2022/06/05 06:36:02;;;;;;;0.45;0.30;;;15.20;99.90;;;;;;5049315;28;20043;-82
2022/06/05 06:38:29;;;;;;;0.82;0.50;;;15.30;99.90;;;;;;5079446;28;20049;-85
2022/06/05 06:41:08;;;;;;;0.40;0.40;;;15.30;99.90;;;;;;5078665;28;20041;-85
2022/06/05 06:43:35;;;;;;;0.28;0.28;;;15.40;99.90;;;;;;5078403;28;20055;-83
2022/06/05 06:46:03;;;;;;;0.43;0.43;;;15.50;99.90;;;;;;5071264;28;20132;-87
2022/06/05 06:48:31;;;;;;;0.93;0.50;;;15.60;99.90;;;;;;5044205;28;20485;-82
2022/06/05 06:50:59;;;;;;;0.32;0.20;;;15.70;99.90;;;;;;5060885;28;20036;-82
2022/06/05 06:53:27;;;;;;;0.52;0.30;;;15.70;99.90;;;;;;5082275;28;20048;-86
2022/06/05 06:55:54;;;;;;;1.52;0.60;;;15.80;99.90;;;;;;5081217;28;20090;-82
2022/06/05 06:58:21;;;;;;;0.75;0.50;;;15.90;99.90;;;;;;5063495;28;20040;-82
2022/06/05 07:00:48;;;;;;;0.30;0.30;;;16.00;99.90;;;;;;5059884;28;20484;-83
2022/06/05 07:03:15;;;;;;;0.57;0.38;;;16.10;99.90;;;;;;5100113;28;20147;-85
2022/06/05 07:05:42;;;;;;;0.85;0.55;;;16.20;99.90;;;;;;5057617;28;20120;-82
2022/06/05 07:08:10;;;;;;;0.40;0.40;;;16.30;99.90;;;;;;5053308;28;20041;-86
2022/06/05 07:10:37;;;;;;;0.13;0.13;;;16.40;99.90;;;;;;5053131;28;20068;-82
2022/06/05 07:13:05;;;;;;;0.90;0.50;;;16.60;99.90;;;;;;5063640;28;20465;-87
2022/06/05 07:15:35;;;;;;;0.82;0.50;;;16.70;99.90;;;;;;5089490;28;20822;-82
2022/06/05 07:18:04;;;;;;;1.17;0.70;;;16.90;99.90;;;;;;5073949;28;20041;-86
2022/06/05 07:20:36;;;;;;;0.80;0.47;;;17.00;99.90;;;;;;5076399;28;20405;-83
2022/06/05 07:23:03;;;;;;;0.57;0.40;;;17.20;99.90;;;;;;5072992;28;20090;-87
2022/06/05 07:25:32;;;;;;;0.77;0.30;;;17.30;99.90;;;;;;5075332;28;20047;-88
2022/06/05 07:27:59;;;;;;;0.57;0.50;;;17.50;99.90;;;;;;5087852;28;20145;-87
2022/06/05 07:30:26;;;;;;;0.93;0.65;;;17.60;99.90;;;;;;5091543;28;20084;-82
2022/06/05 07:32:53;;;;;;;0.63;0.40;;;17.70;99.90;;;;;;5092073;28;20086;-86
2022/06/05 07:35:21;;;;;;;0.63;0.40;;;17.90;99.90;;;;;;5075987;28;20040;-88
2022/06/05 07:37:47;;;;;;;0.90;0.60;;;18.00;99.90;;;;;;5060058;28;20048;-82
2022/06/05 07:40:15;;;;;;;0.40;0.38;;;18.10;99.90;;;;;;5086922;28;20055;-82
2022/06/05 07:42:43;;;;;;;0.93;0.60;;;18.10;99.90;;;;;;5123132;28;20495;-86
2022/06/05 07:45:14;;;;;;;0.60;0.43;;;18.20;99.90;;;;;;5069567;28;20075;-86
2022/06/05 07:47:42;;;;;;;1.38;0.70;;;18.30;99.90;;;;;;5061038;28;20124;-86
2022/06/05 07:50:11;;;;;;;0.45;0.30;;;18.40;99.90;;;;;;5061463;28;20071;-86
2022/06/05 07:55:23;;;;;;;0.60;0.38;;;18.60;99.90;;;;;;5073821;28;20103;-85
2022/06/05 07:57:50;;;;;;;0.85;0.40;;;18.80;99.90;;;;;;5071419;28;20072;-86
2022/06/05 08:00:17;;;;;;;1.15;0.63;;;18.90;99.90;;;;;;5072585;28;20144;-89
2022/06/05 08:02:44;;;;;;;0.73;0.45;;;19.00;99.90;;;;;;5071611;28;20131;-82
2022/06/05 08:05:11;;;;;;;1.23;0.70;;;19.00;99.90;;;;;;5072308;28;20045;-86
2022/06/05 08:07:37;;;;;;;0.43;0.38;;;19.20;99.90;;;;;;5051440;28;20053;-86
2022/06/05 08:10:06;;;;;;;0.43;0.40;;;19.30;99.90;;;;;;5068089;28;20033;-81
2022/06/05 08:12:35;;;;;;;0.90;0.50;;;19.40;99.90;;;;;;5058452;28;20047;-82
2022/06/05 08:15:12;;;;;;;0.68;0.50;;;19.50;99.90;;;;;;5071722;28;20532;-81
2022/06/05 08:17:39;;;;;;;0.63;0.47;;;19.60;99.90;;;;;;5087007;28;20429;-81
2022/06/05 08:20:08;;;;;;;0.93;0.60;;;19.60;99.90;;;;;;5071791;28;20037;-81
2022/06/05 08:22:35;;;;;;;0.55;0.35;;;19.70;99.90;;;;;;5070385;28;20120;-82
2022/06/05 08:25:02;;;;;;;1.00;0.60;;;19.90;99.90;;;;;;5088337;28;20109;-87
2022/06/05 08:27:29;;;;;;;0.57;0.50;;;20.00;99.90;;;;;;5071032;28;20498;-83
2022/06/05 08:29:57;;;;;;;0.63;0.50;;;20.00;99.90;;;;;;5055348;28;20041;-83
2022/06/05 08:32:25;;;;;;;0.57;0.40;;;20.20;99.90;;;;;;5065474;28;20041;-85
2022/06/05 08:34:52;;;;;;;1.15;0.57;;;20.30;99.90;;;;;;5054545;28;20072;-82
2022/06/05 08:43:28;;;;;;;0.93;0.60;;;20.40;99.90;;;;;;5087601;28;20041;-83
2022/06/05 08:46:12;;;;;;;0.68;0.55;;;20.50;99.90;;;;;;5071484;28;20387;-85
2022/06/05 08:48:44;;;;;;;0.52;0.45;;;20.60;99.90;;;;;;5088064;28;20033;-88
2022/06/05 08:51:20;;;;;;;0.45;0.43;;;20.60;99.90;;;;;;5071837;28;20036;-84
2022/06/05 08:53:57;;;;;;;0.50;0.50;;;20.70;99.90;;;;;;5071177;28;20123;-84
2022/06/05 08:56:39;;;;;;;0.65;0.52;;;20.70;99.90;;;;;;5071751;28;20048;-91
2022/06/05 08:59:46;;;;;;;0.80;0.60;;;20.70;99.90;;;;;;5071191;28;20041;-87
2022/06/05 09:02:24;;;;;;;0.47;0.40;;;20.70;99.90;;;;;;4975152;28;20051;-89
2022/06/05 09:05:06;;;;;;;0.40;0.40;;;20.80;99.90;;;;;;5061624;28;20041;-82
2022/06/05 09:07:48;;;;;;;0.63;0.55;;;20.70;99.90;;;;;;5103262;28;20052;-82
2022/06/05 09:10:58;;;;;;;1.27;0.60;;;20.80;99.90;;;;;;5070757;28;20512;-82
2022/06/05 09:13:30;;;;;;;1.02;0.55;;;20.80;99.90;;;;;;5004125;28;20049;-89
2022/06/05 09:15:59;;;;;;;0.60;0.40;;;20.90;99.90;;;;;;4990919;28;20035;-87
2022/06/05 09:18:35;;;;;;;0.60;0.40;;;21.00;99.90;;;;;;5050130;28;20048;-89
2022/06/05 09:21:25;;;;;;;0.73;0.45;;;21.10;99.90;;;;;;5083772;28;20072;-83
2022/06/05 09:24:13;;;;;;;1.10;0.70;;;21.20;99.90;;;;;;5080664;28;20053;-82
2022/06/05 09:26:52;;;;;;;0.85;0.70;;;21.30;99.90;;;;;;5083850;28;20501;-86
2022/06/05 09:29:30;;;;;;;0.95;0.63;;;21.40;99.90;;;;;;5087187;28;20040;-83
2022/06/05 09:32:42;;;;;;;1.23;0.57;;;21.50;99.90;;;;;;5069945;28;20044;-83
2022/06/05 09:35:12;;;;;;;0.43;0.30;;;21.60;99.90;;;;;;5055231;28;20056;-82
2022/06/05 09:37:50;;;;;;;1.33;0.70;;;21.70;99.90;;;;;;5086641;28;20128;-84
2022/06/05 09:40:34;;;;;;;0.50;0.50;;;21.90;99.90;;;;;;5069830;28;20041;-89
2022/06/05 09:43:35;;;;;;;1.40;0.85;;;22.00;99.90;;;;;;5070184;28;20055;-90
2022/06/05 09:46:20;;;;;;;0.70;0.60;;;22.10;99.90;;;;;;5070701;28;20079;-84
2022/06/05 09:49:00;;;;;;;1.20;0.70;;;22.20;99.90;;;;;;5074585;28;20118;-91
2022/06/05 09:51:27;;;;;;;1.17;0.73;;;22.20;99.90;;;;;;5074495;28;20044;-91
2022/06/05 09:54:10;;;;;;;0.70;0.63;;;22.30;99.90;;;;;;5054919;28;20799;-86
2022/06/05 10:00:07;;;;;;;0.98;0.70;;;22.50;99.90;;;;;;5088978;28;20051;-88
2022/06/05 10:02:36;;;;;;;0.55;0.40;;;22.70;99.90;;;;;;5072903;28;20044;-83
2022/06/05 10:05:23;;;;;;;0.98;0.63;;;22.70;99.90;;;;;;5073750;28;20504;-83
2022/06/05 10:08:10;;;;;;;0.98;0.70;;;22.80;99.90;;;;;;5078332;28;20094;-88
2022/06/05 10:10:39;;;;;;;0.80;0.60;;;22.80;99.90;;;;;;5064436;28;20041;-88
2022/06/05 10:13:44;;;;;;;0.73;0.55;;;22.80;99.90;;;;;;5073101;28;20037;-84
2022/06/05 10:16:32;;;;;;;0.57;0.52;;;22.90;99.90;;;;;;5094982;28;20445;-89
2022/06/05 10:19:12;;;;;;;1.10;0.80;;;23.00;99.90;;;;;;5089592;28;20044;-89
2022/06/05 10:21:46;;;;;;;0.68;0.50;;;23.00;99.90;;;;;;5090226;28;20063;-85
2022/06/05 10:24:19;;;;;;;1.00;0.75;;;23.10;99.90;;;;;;5090584;28;20053;-86
2022/06/05 10:26:48;;;;;;;0.60;0.52;;;23.10;99.90;;;;;;5096681;28;20044;-87
2022/06/05 10:29:26;;;;;;;1.73;0.88;;;23.20;99.90;;;;;;5074200;28;20040;-86
2022/06/05 10:31:59;;;;;;;1.30;0.70;;;23.20;99.90;;;;;;5064176;28;20083;-86
2022/06/05 10:34:39;;;;;;;0.50;0.50;;;23.30;99.90;;;;;;5052944;28;20482;-82
2022/06/05 10:37:29;;;;;;;1.10;0.70;;;23.40;99.90;;;;;;5053374;28;20755;-83
2022/06/05 10:40:20;;;;;;;1.00;0.60;;;23.50;99.90;;;;;;5066934;28;20452;-87
2022/06/05 10:42:59;;;;;;;0.98;0.60;;;23.70;99.90;;;;;;5089435;28;20036;-83
2022/06/05 10:45:40;;;;;;;0.63;0.40;;;23.80;99.90;;;;;;5072759;28;20047;-83
2022/06/05 10:48:18;;;;;;;0.70;0.55;;;23.90;99.90;;;;;;5089007;28;20079;-83
2022/06/05 10:50:55;;;;;;;0.68;0.57;;;23.90;99.90;;;;;;5073126;28;20036;-87
2022/06/05 10:53:44;;;;;;;0.90;0.70;;;23.90;99.90;;;;;;5074016;28;20123;-82
2022/06/05 10:56:58;;;;;;;0.95;0.60;;;23.80;99.90;;;;;;5065207;28;20106;-83
2022/06/05 10:59:37;;;;;;;1.10;0.70;;;23.80;99.90;;;;;;5083700;28;20048;-83
2022/06/05 11:02:47;;;;;;;0.52;0.50;;;23.80;99.90;;;;;;5076447;28;20133;-83
2022/06/05 11:05:26;;;;;;;1.70;0.93;;;24.00;99.90;;;;;;5076966;28;20459;-88
2022/06/05 11:08:03;;;;;;;1.00;0.65;;;24.00;99.90;;;;;;5075610;28;20037;-83
2022/06/05 11:13:40;;;;;;;1.25;0.82;;;24.10;99.90;;;;;;5073047;28;20123;-83
2022/06/05 11:16:31;;;;;;;0.70;0.52;;;24.20;99.90;;;;;;5086708;28;20044;-84
2022/06/05 11:19:21;;;;;;;0.88;0.70;;;24.20;99.90;;;;;;5092338;28;20052;-87
2022/06/05 11:21:50;;;;;;;0.70;0.60;;;24.30;99.90;;;;;;5075497;28;20410;-87
2022/06/05 11:24:32;;;;;;;1.15;0.65;;;24.30;99.90;;;;;;5076091;28;20091;-83
2022/06/05 11:27:05;;;;;;;1.15;0.85;;;24.20;99.90;;;;;;5076463;28;20051;-83
2022/06/05 11:30:15;;;;;;;0.63;0.55;;;24.10;99.90;;;;;;5109892;28;20043;-88
2022/06/05 11:32:47;;;;;;;1.23;0.70;;;24.10;99.90;;;;;;5092741;28;20120;-83
2022/06/05 11:35:45;;;;;;;0.93;0.65;;;24.00;99.90;;;;;;5093481;28;20555;-81
2022/06/05 11:38:30;;;;;;;0.98;0.77;;;24.20;99.90;;;;;;5078797;28;20044;-90
2022/06/05 11:41:17;;;;;;;0.80;0.60;;;24.20;99.90;;;;;;5072594;28;20048;-83
2022/06/05 11:43:44;;;;;;;2.25;0.93;;;24.20;99.90;;;;;;5074909;28;20081;-86
2022/06/05 11:46:35;;;;;;;1.05;0.73;;;24.20;99.90;;;;;;5084571;28;20036;-90
2022/06/05 11:49:10;;;;;;;0.32;0.30;;;24.20;99.90;;;;;;5073081;28;20056;-83
2022/06/05 11:51:46;;;;;;;1.30;0.77;;;24.10;99.90;;;;;;5056074;28;20033;-83
2022/06/05 11:54:28;;;;;;;0.82;0.60;;;24.10;99.90;;;;;;5089123;28;20036;-87
2022/06/05 11:57:14;;;;;;;1.15;0.63;;;24.20;99.90;;;;;;5056065;28;20041;-89
2022/06/05 11:59:57;;;;;;;0.93;0.60;;;24.20;99.90;;;;;;5064998;28;20545;-85
2022/06/05 12:02:53;;;;;;;1.13;0.70;;;24.20;99.90;;;;;;5075901;28;20032;-82
2022/06/05 12:05:44;;;;;;;0.77;0.60;;;24.30;99.90;;;;;;5077344;28;20044;-89
2022/06/05 12:08:37;;;;;;;0.82;0.70;;;24.20;99.90;;;;;;5076771;28;20044;-88
2022/06/05 12:11:17;;;;;;;0.90;0.70;;;24.10;99.90;;;;;;5074192;28;20044;-88
2022/06/05 12:14:19;;;;;;;0.52;0.47;;;24.10;99.90;;;;;;5074975;28;20486;-86
2022/06/05 12:17:05;;;;;;;0.70;0.60;;;24.00;99.90;;;;;;5070252;28;20049;-83
2022/06/05 12:19:37;;;;;;;0.70;0.60;;;24.10;99.90;;;;;;5075564;28;20045;-88
2022/06/05 12:22:20;;;;;;;1.08;0.70;;;24.00;99.90;;;;;;5075927;28;20041;-87
2022/06/05 12:25:14;;;;;;;0.85;0.68;;;23.90;99.90;;;;;;5092197;28;20041;-83
2022/06/05 12:28:10;;;;;;;0.68;0.60;;;24.00;99.90;;;;;;5092333;28;20048;-83
2022/06/05 12:30:51;;;;;;;;;;;24.10;99.90;;;;;;5092466;28;20037;-83
2022/06/05 12:33:24;;;;;;;1.05;0.70;;;24.10;99.90;;;;;;5104276;28;19928;-89
2022/06/05 12:35:54;;;;;;;0.60;0.55;;;24.10;99.90;;;;;;5082095;28;20124;-83
2022/06/05 12:38:27;;;;;;;0.98;0.70;;;24.10;99.90;;;;;;5075794;28;20098;-89
2022/06/05 12:41:20;;;;;;;0.85;0.52;;;24.00;99.90;;;;;;5091615;28;20122;-83
2022/06/05 12:43:56;;;;;;;0.40;0.40;;;24.00;99.90;;;;;;5075642;28;20102;-88
2022/06/05 12:46:34;;;;;;;0.55;0.55;;;23.90;99.90;;;;;;5092110;28;20033;-89
2022/06/05 12:49:25;;;;;;;0.60;0.50;;;23.90;99.90;;;;;;5075046;28;20076;-89
2022/06/05 12:52:02;;;;;;;1.00;0.50;;;23.90;99.90;;;;;;5074854;28;20074;-83
2022/06/05 12:55:02;;;;;;;0.60;0.60;;;23.90;99.90;;;;;;5091618;28;20041;-91
2022/06/05 12:57:52;;;;;;;0.98;0.65;;;24.00;99.90;;;;;;5072736;28;20045;-85
2022/06/05 13:00:46;;;;;;;1.27;0.60;;;23.90;99.90;;;;;;5063498;28;20041;-83
2022/06/05 13:03:37;;;;;;;0.60;0.50;;;23.90;99.90;;;;;;5071003;28;20037;-89
2022/06/05 13:06:39;;;;;;;0.75;0.60;;;24.00;99.90;;;;;;5070990;28;20036;-83
2022/06/05 13:09:32;;;;;;;0.63;0.47;;;23.90;99.90;;;;;;5067554;28;20140;-83
2022/06/05 13:12:19;;;;;;;1.08;0.60;;;24.00;99.90;;;;;;5087864;28;20043;-83
2022/06/05 13:14:56;;;;;;;0.65;0.57;;;23.90;99.90;;;;;;5087263;28;20044;-89
2022/06/05 13:17:47;;;;;;;0.85;0.60;;;23.90;99.90;;;;;;5070293;28;20041;-83
2022/06/05 13:20:24;;;;;;;0.52;0.52;;;23.90;99.90;;;;;;5094303;28;20041;-89
2022/06/05 13:23:18;;;;;;;1.10;0.70;;;23.90;99.90;;;;;;5090404;28;20201;-88
2022/06/05 13:26:08;;;;;;;0.60;0.60;;;23.90;99.90;;;;;;5107934;28;20087;-89
2022/06/05 13:28:57;;;;;;;0.70;0.65;;;23.90;99.90;;;;;;5108219;28;20045;-89
2022/06/05 13:31:51;;;;;;;0.80;0.55;;;23.90;99.90;;;;;;5074902;28;20040;-88
2022/06/05 13:34:18;;;;;;;1.08;0.43;;;23.90;99.90;;;;;;5090696;28;20039;-89
2022/06/05 13:36:54;;;;;;;0.52;0.52;;;24.00;99.90;;;;;;5091132;28;20036;-89
2022/06/05 13:39:30;;;;;;;0.85;0.63;;;24.00;99.90;;;;;;5078285;28;20118;-87
2022/06/05 13:42:20;;;;;;;0.50;0.50;;;24.00;99.90;;;;;;5090480;28;20110;-83
2022/06/05 13:44:58;;;;;;;0.68;0.60;;;24.00;99.90;;;;;;5090809;28;20044;-82
2022/06/05 13:47:31;;;;;;;0.60;0.50;;;23.90;99.90;;;;;;5073032;28;20060;-82
2022/06/05 13:50:16;;;;;;;0.68;0.52;;;24.00;99.90;;;;;;5083232;28;20051;-85
2022/06/05 13:52:47;;;;;;;0.88;0.63;;;23.90;99.90;;;;;;5090350;28;20109;-85